sensor_id;sensor_type;location;lat;lon;timestamp;P1;durP1;ratioP1;P2;durP2;ratioP2
11431;SDS011;5772;50.940;6.782;2022-11-04T00:01:12;40.07;;;38.47;;
11431;SDS011;5772;50.940;6.782;2022-11-04T00:03:37;39.50;;;37.90;;
11431;SDS011;5772;50.940;6.782;2022-11-04T00:06:04;37.53;;;35.93;;
11431;SDS011;5772;50.940;6.782;2022-11-04T00:08:30;40.80;;;38.97;;
11431;SDS011;5772;50.940;6.782;2022-11-04T00:10:55;38.87;;;37.27;;
11431;SDS011;5772;50.940;6.782;2022-11-04T00:13:21;41.07;;;39.47;;
11431;SDS011;5772;50.940;6.782;2022-11-04T00:15:47;38.90;;;37.30;;
11431;SDS011;5772;50.940;6.782;2022-11-04T00:18:12;41.77;;;40.07;;
11431;SDS011;5772;50.940;6.782;2022-11-04T00:20:37;38.23;;;36.73;;
11431;SDS011;5772;50.940;6.782;2022-11-04T00:23:04;39.23;;;37.73;;
11431;SDS011;5772;50.940;6.782;2022-11-04T00:25:29;39.43;;;37.83;;
11431;SDS011;5772;50.940;6.782;2022-11-04T00:28:00;40.53;;;38.90;;
11431;SDS011;5772;50.940;6.782;2022-11-04T00:30:26;36.63;;;35.03;;
11431;SDS011;5772;50.940;6.782;2022-11-04T00:32:51;36.00;;;34.60;;
11431;SDS011;5772;50.940;6.782;2022-11-04T00:35:17;38.00;;;36.30;;
11431;SDS011;5772;50.940;6.782;2022-11-04T00:37:42;39.43;;;37.83;;
11431;SDS011;5772;50.940;6.782;2022-11-04T00:40:12;38.40;;;36.87;;
11431;SDS011;5772;50.940;6.782;2022-11-04T00:42:39;38.97;;;37.37;;
11431;SDS011;5772;50.940;6.782;2022-11-04T00:45:07;38.40;;;36.90;;
11431;SDS011;5772;50.940;6.782;2022-11-04T00:47:33;39.53;;;37.93;;
11431;SDS011;5772;50.940;6.782;2022-11-04T00:49:59;39.60;;;37.80;;
11431;SDS011;5772;50.940;6.782;2022-11-04T00:52:24;40.43;;;38.70;;
11431;SDS011;5772;50.940;6.782;2022-11-04T00:54:49;37.27;;;35.77;;
11431;SDS011;5772;50.940;6.782;2022-11-04T00:57:16;36.57;;;34.97;;
11431;SDS011;5772;50.940;6.782;2022-11-04T00:59:41;38.43;;;36.87;;
11431;SDS011;5772;50.940;6.782;2022-11-04T01:02:08;38.33;;;36.60;;
11431;SDS011;5772;50.940;6.782;2022-11-04T01:04:33;36.03;;;34.53;;
11431;SDS011;5772;50.940;6.782;2022-11-04T01:06:59;36.90;;;35.40;;
11431;SDS011;5772;50.940;6.782;2022-11-04T01:09:25;35.70;;;34.30;;
11431;SDS011;5772;50.940;6.782;2022-11-04T01:11:50;35.20;;;33.80;;
11431;SDS011;5772;50.940;6.782;2022-11-04T01:14:17;36.17;;;34.60;;
11431;SDS011;5772;50.940;6.782;2022-11-04T01:16:43;35.00;;;33.60;;
11431;SDS011;5772;50.940;6.782;2022-11-04T01:19:08;34.93;;;33.43;;
11431;SDS011;5772;50.940;6.782;2022-11-04T01:21:34;36.20;;;34.80;;
11431;SDS011;5772;50.940;6.782;2022-11-04T01:23:59;35.77;;;34.27;;
11431;SDS011;5772;50.940;6.782;2022-11-04T01:26:25;44.80;;;42.93;;
11431;SDS011;5772;50.940;6.782;2022-11-04T01:28:51;45.53;;;43.73;;
11431;SDS011;5772;50.940;6.782;2022-11-04T01:31:20;46.70;;;44.63;;
11431;SDS011;5772;50.940;6.782;2022-11-04T01:33:47;48.40;;;46.50;;
11431;SDS011;5772;50.940;6.782;2022-11-04T01:36:12;50.70;;;48.70;;
11431;SDS011;5772;50.940;6.782;2022-11-04T01:38:38;49.37;;;47.37;;
11431;SDS011;5772;50.940;6.782;2022-11-04T01:41:04;50.47;;;48.37;;
11431;SDS011;5772;50.940;6.782;2022-11-04T01:43:43;54.23;;;52.07;;
11431;SDS011;5772;50.940;6.782;2022-11-04T01:46:09;54.40;;;52.03;;
11431;SDS011;5772;50.940;6.782;2022-11-04T01:48:38;49.40;;;47.23;;
11431;SDS011;5772;50.940;6.782;2022-11-04T01:51:04;49.13;;;47.10;;
11431;SDS011;5772;50.940;6.782;2022-11-04T01:53:31;50.80;;;48.53;;
11431;SDS011;5772;50.940;6.782;2022-11-04T01:55:57;54.77;;;52.60;;
11431;SDS011;5772;50.940;6.782;2022-11-04T01:58:25;54.50;;;52.23;;
11431;SDS011;5772;50.940;6.782;2022-11-04T02:00:52;57.30;;;54.97;;
11431;SDS011;5772;50.940;6.782;2022-11-04T02:03:19;56.90;;;54.37;;
11431;SDS011;5772;50.940;6.782;2022-11-04T02:05:47;58.63;;;56.33;;
11431;SDS011;5772;50.940;6.782;2022-11-04T02:08:12;56.10;;;53.80;;
11431;SDS011;5772;50.940;6.782;2022-11-04T02:10:39;63.50;;;60.90;;
11431;SDS011;5772;50.940;6.782;2022-11-04T02:13:06;57.67;;;55.37;;
11431;SDS011;5772;50.940;6.782;2022-11-04T02:15:34;56.37;;;54.00;;
11431;SDS011;5772;50.940;6.782;2022-11-04T02:18:05;59.83;;;57.33;;
11431;SDS011;5772;50.940;6.782;2022-11-04T02:20:49;60.00;;;57.60;;
11431;SDS011;5772;50.940;6.782;2022-11-04T02:29:21;57.97;;;55.70;;
11431;SDS011;5772;50.940;6.782;2022-11-04T02:31:51;57.47;;;55.20;;
11431;SDS011;5772;50.940;6.782;2022-11-04T02:34:21;55.37;;;52.97;;
11431;SDS011;5772;50.940;6.782;2022-11-04T02:36:52;52.23;;;50.13;;
11431;SDS011;5772;50.940;6.782;2022-11-04T02:39:23;51.17;;;49.13;;
11431;SDS011;5772;50.940;6.782;2022-11-04T02:41:54;53.40;;;51.07;;
11431;SDS011;5772;50.940;6.782;2022-11-04T02:44:24;51.47;;;49.37;;
11431;SDS011;5772;50.940;6.782;2022-11-04T02:46:55;50.47;;;48.03;;
11431;SDS011;5772;50.940;6.782;2022-11-04T02:49:24;46.70;;;44.80;;
11431;SDS011;5772;50.940;6.782;2022-11-04T02:51:52;49.97;;;47.53;;
11431;SDS011;5772;50.940;6.782;2022-11-04T02:54:21;48.33;;;46.23;;
11431;SDS011;5772;50.940;6.782;2022-11-04T02:56:50;42.43;;;40.50;;
11431;SDS011;5772;50.940;6.782;2022-11-04T02:59:17;41.63;;;39.93;;
11431;SDS011;5772;50.940;6.782;2022-11-04T03:01:47;40.33;;;38.70;;
11431;SDS011;5772;50.940;6.782;2022-11-04T03:04:14;35.50;;;34.10;;
11431;SDS011;5772;50.940;6.782;2022-11-04T03:06:40;34.20;;;32.80;;
11431;SDS011;5772;50.940;6.782;2022-11-04T03:09:06;31.73;;;30.50;;
11431;SDS011;5772;50.940;6.782;2022-11-04T03:11:32;35.07;;;33.57;;
11431;SDS011;5772;50.940;6.782;2022-11-04T03:14:00;35.40;;;33.83;;
11431;SDS011;5772;50.940;6.782;2022-11-04T03:16:29;33.97;;;32.57;;
11431;SDS011;5772;50.940;6.782;2022-11-04T03:19:01;32.73;;;31.47;;
11431;SDS011;5772;50.940;6.782;2022-11-04T03:21:30;36.83;;;35.33;;
11431;SDS011;5772;50.940;6.782;2022-11-04T03:23:58;35.87;;;34.37;;
11431;SDS011;5772;50.940;6.782;2022-11-04T03:26:25;40.00;;;38.33;;
11431;SDS011;5772;50.940;6.782;2022-11-04T03:28:54;44.90;;;42.83;;
11431;SDS011;5772;50.940;6.782;2022-11-04T03:31:26;46.53;;;44.50;;
11431;SDS011;5772;50.940;6.782;2022-11-04T03:33:54;47.03;;;44.97;;
11431;SDS011;5772;50.940;6.782;2022-11-04T03:36:22;47.63;;;45.20;;
11431;SDS011;5772;50.940;6.782;2022-11-04T03:38:48;46.97;;;44.97;;
11431;SDS011;5772;50.940;6.782;2022-11-04T03:41:14;47.10;;;44.47;;
11431;SDS011;5772;50.940;6.782;2022-11-04T03:43:42;48.73;;;46.83;;
11431;SDS011;5772;50.940;6.782;2022-11-04T03:46:07;49.07;;;46.97;;
11431;SDS011;5772;50.940;6.782;2022-11-04T03:48:33;48.17;;;46.23;;
11431;SDS011;5772;50.940;6.782;2022-11-04T03:50:59;49.67;;;47.37;;
11431;SDS011;5772;50.940;6.782;2022-11-04T03:53:26;48.07;;;45.93;;
11431;SDS011;5772;50.940;6.782;2022-11-04T03:56:03;47.20;;;45.27;;
11431;SDS011;5772;50.940;6.782;2022-11-04T03:58:39;48.60;;;46.50;;
11431;SDS011;5772;50.940;6.782;2022-11-04T04:01:11;47.07;;;45.07;;
11431;SDS011;5772;50.940;6.782;2022-11-04T04:03:43;52.10;;;49.93;;
11431;SDS011;5772;50.940;6.782;2022-11-04T04:06:14;52.83;;;50.67;;
11431;SDS011;5772;50.940;6.782;2022-11-04T04:08:42;49.00;;;47.00;;
11431;SDS011;5772;50.940;6.782;2022-11-04T04:11:12;49.80;;;47.37;;
11431;SDS011;5772;50.940;6.782;2022-11-04T04:13:42;48.80;;;46.90;;
11431;SDS011;5772;50.940;6.782;2022-11-04T04:16:11;52.40;;;50.17;;
11431;SDS011;5772;50.940;6.782;2022-11-04T04:18:41;52.13;;;49.67;;
11431;SDS011;5772;50.940;6.782;2022-11-04T04:21:11;55.93;;;53.43;;
11431;SDS011;5772;50.940;6.782;2022-11-04T04:23:38;55.47;;;52.97;;
11431;SDS011;5772;50.940;6.782;2022-11-04T04:26:06;56.83;;;54.13;;
11431;SDS011;5772;50.940;6.782;2022-11-04T04:28:32;57.37;;;54.63;;
11431;SDS011;5772;50.940;6.782;2022-11-04T04:30:57;59.30;;;56.83;;
11431;SDS011;5772;50.940;6.782;2022-11-04T04:33:23;61.73;;;58.73;;
11431;SDS011;5772;50.940;6.782;2022-11-04T04:35:49;59.30;;;56.90;;
11431;SDS011;5772;50.940;6.782;2022-11-04T04:38:18;60.93;;;58.03;;
11431;SDS011;5772;50.940;6.782;2022-11-04T04:40:46;58.43;;;56.13;;
11431;SDS011;5772;50.940;6.782;2022-11-04T04:43:16;58.63;;;56.23;;
11431;SDS011;5772;50.940;6.782;2022-11-04T04:45:42;58.87;;;56.27;;
11431;SDS011;5772;50.940;6.782;2022-11-04T04:48:12;61.03;;;58.30;;
11431;SDS011;5772;50.940;6.782;2022-11-04T04:50:38;58.97;;;56.57;;
11431;SDS011;5772;50.940;6.782;2022-11-04T04:53:05;60.80;;;58.33;;
11431;SDS011;5772;50.940;6.782;2022-11-04T04:55:30;57.27;;;54.80;;
11431;SDS011;5772;50.940;6.782;2022-11-04T04:57:56;53.13;;;50.60;;
11431;SDS011;5772;50.940;6.782;2022-11-04T05:00:23;52.67;;;50.30;;
11431;SDS011;5772;50.940;6.782;2022-11-04T05:02:48;48.10;;;45.87;;
11431;SDS011;5772;50.940;6.782;2022-11-04T05:05:14;44.23;;;42.43;;
11431;SDS011;5772;50.940;6.782;2022-11-04T05:07:40;44.13;;;42.00;;
11431;SDS011;5772;50.940;6.782;2022-11-04T05:10:06;41.60;;;39.90;;
11431;SDS011;5772;50.940;6.782;2022-11-04T05:12:33;43.73;;;41.63;;
11431;SDS011;5772;50.940;6.782;2022-11-04T05:14:58;41.43;;;39.67;;
11431;SDS011;5772;50.940;6.782;2022-11-04T05:17:25;46.70;;;44.40;;
11431;SDS011;5772;50.940;6.782;2022-11-04T05:19:50;45.00;;;43.20;;
11431;SDS011;5772;50.940;6.782;2022-11-04T05:22:16;45.53;;;43.63;;
11431;SDS011;5772;50.940;6.782;2022-11-04T05:24:41;45.87;;;43.87;;
11431;SDS011;5772;50.940;6.782;2022-11-04T05:27:06;49.03;;;46.90;;
11431;SDS011;5772;50.940;6.782;2022-11-04T05:29:32;50.03;;;47.97;;
11431;SDS011;5772;50.940;6.782;2022-11-04T05:31:57;51.07;;;48.97;;
11431;SDS011;5772;50.940;6.782;2022-11-04T05:34:24;52.87;;;50.57;;
11431;SDS011;5772;50.940;6.782;2022-11-04T05:36:49;49.93;;;47.83;;
11431;SDS011;5772;50.940;6.782;2022-11-04T05:39:14;48.30;;;46.30;;
11431;SDS011;5772;50.940;6.782;2022-11-04T05:41:40;50.80;;;48.40;;
11431;SDS011;5772;50.940;6.782;2022-11-04T05:44:05;47.23;;;45.00;;
11431;SDS011;5772;50.940;6.782;2022-11-04T05:46:30;46.90;;;44.63;;
11431;SDS011;5772;50.940;6.782;2022-11-04T05:48:56;46.87;;;44.77;;
11431;SDS011;5772;50.940;6.782;2022-11-04T05:51:23;49.47;;;47.17;;
11431;SDS011;5772;50.940;6.782;2022-11-04T05:53:50;43.33;;;41.27;;
11431;SDS011;5772;50.940;6.782;2022-11-04T05:56:15;43.23;;;41.43;;
11431;SDS011;5772;50.940;6.782;2022-11-04T05:58:41;40.67;;;38.87;;
11431;SDS011;5772;50.940;6.782;2022-11-04T06:01:10;37.97;;;36.27;;
11431;SDS011;5772;50.940;6.782;2022-11-04T06:03:36;42.67;;;40.53;;
11431;SDS011;5772;50.940;6.782;2022-11-04T06:06:01;43.63;;;41.67;;
11431;SDS011;5772;50.940;6.782;2022-11-04T06:08:28;43.30;;;41.53;;
11431;SDS011;5772;50.940;6.782;2022-11-04T06:10:54;44.37;;;42.53;;
11431;SDS011;5772;50.940;6.782;2022-11-04T06:13:19;44.20;;;42.37;;
11431;SDS011;5772;50.940;6.782;2022-11-04T06:15:44;39.50;;;37.70;;
11431;SDS011;5772;50.940;6.782;2022-11-04T06:18:10;34.23;;;32.57;;
11431;SDS011;5772;50.940;6.782;2022-11-04T06:20:35;33.50;;;31.93;;
11431;SDS011;5772;50.940;6.782;2022-11-04T06:23:00;32.83;;;31.43;;
11431;SDS011;5772;50.940;6.782;2022-11-04T06:25:27;34.03;;;32.40;;
11431;SDS011;5772;50.940;6.782;2022-11-04T06:27:52;32.67;;;31.13;;
11431;SDS011;5772;50.940;6.782;2022-11-04T06:30:18;172.30;;;115.20;;
11431;SDS011;5772;50.940;6.782;2022-11-04T06:32:43;240.63;;;152.40;;
11431;SDS011;5772;50.940;6.782;2022-11-04T06:35:08;33.93;;;32.37;;
11431;SDS011;5772;50.940;6.782;2022-11-04T06:37:34;34.57;;;33.10;;
11431;SDS011;5772;50.940;6.782;2022-11-04T06:39:59;38.60;;;37.03;;
11431;SDS011;5772;50.940;6.782;2022-11-04T06:42:26;41.07;;;39.37;;
11431;SDS011;5772;50.940;6.782;2022-11-04T06:44:51;44.83;;;42.67;;
11431;SDS011;5772;50.940;6.782;2022-11-04T06:47:17;45.20;;;43.27;;
11431;SDS011;5772;50.940;6.782;2022-11-04T06:49:42;46.73;;;44.30;;
11431;SDS011;5772;50.940;6.782;2022-11-04T06:52:07;43.83;;;41.87;;
11431;SDS011;5772;50.940;6.782;2022-11-04T06:54:33;44.93;;;42.60;;
11431;SDS011;5772;50.940;6.782;2022-11-04T06:56:58;48.37;;;46.17;;
11431;SDS011;5772;50.940;6.782;2022-11-04T06:59:25;44.10;;;42.10;;
11431;SDS011;5772;50.940;6.782;2022-11-04T07:01:50;46.13;;;44.03;;
11431;SDS011;5772;50.940;6.782;2022-11-04T07:04:15;44.00;;;41.90;;
11431;SDS011;5772;50.940;6.782;2022-11-04T07:06:41;44.73;;;42.70;;
11431;SDS011;5772;50.940;6.782;2022-11-04T07:09:08;46.53;;;44.40;;
11431;SDS011;5772;50.940;6.782;2022-11-04T07:11:34;44.13;;;42.13;;
11431;SDS011;5772;50.940;6.782;2022-11-04T07:14:00;44.63;;;42.47;;
11431;SDS011;5772;50.940;6.782;2022-11-04T07:16:27;43.67;;;41.47;;
11431;SDS011;5772;50.940;6.782;2022-11-04T07:18:52;40.20;;;38.33;;
11431;SDS011;5772;50.940;6.782;2022-11-04T07:21:18;39.77;;;37.97;;
11431;SDS011;5772;50.940;6.782;2022-11-04T07:23:43;38.83;;;36.90;;
11431;SDS011;5772;50.940;6.782;2022-11-04T07:26:09;36.80;;;35.20;;
11431;SDS011;5772;50.940;6.782;2022-11-04T07:28:35;38.40;;;36.57;;
11431;SDS011;5772;50.940;6.782;2022-11-04T07:31:01;37.27;;;35.40;;
11431;SDS011;5772;50.940;6.782;2022-11-04T07:33:28;39.63;;;37.93;;
11431;SDS011;5772;50.940;6.782;2022-11-04T07:35:54;39.93;;;38.13;;
11431;SDS011;5772;50.940;6.782;2022-11-04T07:38:19;37.77;;;35.87;;
11431;SDS011;5772;50.940;6.782;2022-11-04T07:40:45;36.80;;;34.80;;
11431;SDS011;5772;50.940;6.782;2022-11-04T07:43:11;38.17;;;36.30;;
11431;SDS011;5772;50.940;6.782;2022-11-04T07:45:36;34.30;;;32.80;;
11431;SDS011;5772;50.940;6.782;2022-11-04T07:48:02;35.73;;;33.80;;
11431;SDS011;5772;50.940;6.782;2022-11-04T07:50:28;36.93;;;35.00;;
11431;SDS011;5772;50.940;6.782;2022-11-04T07:52:54;37.80;;;36.10;;
11431;SDS011;5772;50.940;6.782;2022-11-04T07:55:19;34.90;;;33.27;;
11431;SDS011;5772;50.940;6.782;2022-11-04T07:57:45;39.07;;;37.07;;
11431;SDS011;5772;50.940;6.782;2022-11-04T08:00:11;44.00;;;42.10;;
11431;SDS011;5772;50.940;6.782;2022-11-04T08:02:37;47.53;;;45.17;;
11431;SDS011;5772;50.940;6.782;2022-11-04T08:05:03;51.47;;;49.13;;
11431;SDS011;5772;50.940;6.782;2022-11-04T08:07:30;48.17;;;45.87;;
11431;SDS011;5772;50.940;6.782;2022-11-04T08:09:56;45.53;;;43.53;;
11431;SDS011;5772;50.940;6.782;2022-11-04T08:12:21;51.73;;;49.53;;
11431;SDS011;5772;50.940;6.782;2022-11-04T08:14:46;49.13;;;47.03;;
11431;SDS011;5772;50.940;6.782;2022-11-04T08:17:12;50.33;;;47.83;;
11431;SDS011;5772;50.940;6.782;2022-11-04T08:19:37;50.70;;;48.50;;
11431;SDS011;5772;50.940;6.782;2022-11-04T08:22:02;90.20;;;86.57;;
11431;SDS011;5772;50.940;6.782;2022-11-04T08:24:29;44.37;;;42.27;;
11431;SDS011;5772;50.940;6.782;2022-11-04T08:26:54;42.90;;;41.03;;
11431;SDS011;5772;50.940;6.782;2022-11-04T08:29:20;42.23;;;39.93;;
11431;SDS011;5772;50.940;6.782;2022-11-04T08:31:45;41.53;;;39.73;;
11431;SDS011;5772;50.940;6.782;2022-11-04T08:34:10;45.17;;;43.10;;
11431;SDS011;5772;50.940;6.782;2022-11-04T08:36:36;54.97;;;51.47;;
11431;SDS011;5772;50.940;6.782;2022-11-04T08:39:03;46.33;;;43.93;;
11431;SDS011;5772;50.940;6.782;2022-11-04T08:41:30;43.20;;;41.07;;
11431;SDS011;5772;50.940;6.782;2022-11-04T08:43:56;39.37;;;37.40;;
11431;SDS011;5772;50.940;6.782;2022-11-04T08:46:22;54.97;;;52.17;;
11431;SDS011;5772;50.940;6.782;2022-11-04T08:48:49;64.40;;;61.77;;
11431;SDS011;5772;50.940;6.782;2022-11-04T08:51:16;75.17;;;71.97;;
11431;SDS011;5772;50.940;6.782;2022-11-04T08:53:43;57.70;;;54.53;;
11431;SDS011;5772;50.940;6.782;2022-11-04T08:56:09;31.40;;;29.77;;
11431;SDS011;5772;50.940;6.782;2022-11-04T08:58:37;31.83;;;30.03;;
11431;SDS011;5772;50.940;6.782;2022-11-04T09:01:03;28.73;;;27.43;;
11431;SDS011;5772;50.940;6.782;2022-11-04T09:03:28;28.60;;;27.23;;
11431;SDS011;5772;50.940;6.782;2022-11-04T09:05:54;27.97;;;26.53;;
11431;SDS011;5772;50.940;6.782;2022-11-04T09:08:21;28.80;;;27.30;;
11431;SDS011;5772;50.940;6.782;2022-11-04T09:10:47;29.70;;;28.03;;
11431;SDS011;5772;50.940;6.782;2022-11-04T09:13:13;29.13;;;27.83;;
11431;SDS011;5772;50.940;6.782;2022-11-04T09:15:40;27.23;;;25.67;;
11431;SDS011;5772;50.940;6.782;2022-11-04T09:18:06;26.10;;;24.73;;
11431;SDS011;5772;50.940;6.782;2022-11-04T09:20:31;26.00;;;24.70;;
11431;SDS011;5772;50.940;6.782;2022-11-04T09:22:57;29.60;;;28.13;;
11431;SDS011;5772;50.940;6.782;2022-11-04T09:25:22;26.83;;;25.43;;
11431;SDS011;5772;50.940;6.782;2022-11-04T09:27:48;24.47;;;23.30;;
11431;SDS011;5772;50.940;6.782;2022-11-04T09:30:13;21.00;;;19.90;;
11431;SDS011;5772;50.940;6.782;2022-11-04T09:32:40;18.40;;;17.50;;
11431;SDS011;5772;50.940;6.782;2022-11-04T09:35:06;18.10;;;17.00;;
11431;SDS011;5772;50.940;6.782;2022-11-04T09:37:32;16.03;;;15.30;;
11431;SDS011;5772;50.940;6.782;2022-11-04T09:39:57;17.13;;;16.30;;
11431;SDS011;5772;50.940;6.782;2022-11-04T09:42:29;16.47;;;15.57;;
11431;SDS011;5772;50.940;6.782;2022-11-04T09:45:02;15.97;;;15.07;;
11431;SDS011;5772;50.940;6.782;2022-11-04T09:47:31;18.13;;;17.23;;
11431;SDS011;5772;50.940;6.782;2022-11-04T09:49:59;15.53;;;14.83;;
11431;SDS011;5772;50.940;6.782;2022-11-04T09:52:25;18.33;;;17.13;;
11431;SDS011;5772;50.940;6.782;2022-11-04T09:54:53;16.07;;;15.27;;
11431;SDS011;5772;50.940;6.782;2022-11-04T09:57:21;15.80;;;15.10;;
11431;SDS011;5772;50.940;6.782;2022-11-04T09:59:46;16.80;;;15.70;;
11431;SDS011;5772;50.940;6.782;2022-11-04T10:02:21;18.67;;;17.80;;
11431;SDS011;5772;50.940;6.782;2022-11-04T10:04:54;19.77;;;18.87;;
11431;SDS011;5772;50.940;6.782;2022-11-04T10:07:32;17.97;;;17.17;;
11431;SDS011;5772;50.940;6.782;2022-11-04T10:10:18;15.97;;;15.17;;
11431;SDS011;5772;50.940;6.782;2022-11-04T10:12:51;16.57;;;15.80;;
11431;SDS011;5772;50.940;6.782;2022-11-04T10:18:31;17.93;;;17.07;;
11431;SDS011;5772;50.940;6.782;2022-11-04T10:21:08;17.13;;;16.33;;
11431;SDS011;5772;50.940;6.782;2022-11-04T10:23:37;15.50;;;14.73;;
11431;SDS011;5772;50.940;6.782;2022-11-04T10:26:08;15.55;;;14.73;;
11431;SDS011;5772;50.940;6.782;2022-11-04T10:28:39;15.60;;;14.80;;
11431;SDS011;5772;50.940;6.782;2022-11-04T10:31:06;14.80;;;14.20;;
11431;SDS011;5772;50.940;6.782;2022-11-04T10:33:33;16.55;;;15.85;;
11431;SDS011;5772;50.940;6.782;2022-11-04T10:36:00;15.45;;;14.75;;
11431;SDS011;5772;50.940;6.782;2022-11-04T10:38:31;14.60;;;13.80;;
11431;SDS011;5772;50.940;6.782;2022-11-04T10:40:58;15.43;;;14.73;;
11431;SDS011;5772;50.940;6.782;2022-11-04T10:43:28;15.50;;;14.50;;
11431;SDS011;5772;50.940;6.782;2022-11-04T10:45:59;29.63;;;27.97;;
11431;SDS011;5772;50.940;6.782;2022-11-04T10:48:32;24.17;;;22.67;;
11431;SDS011;5772;50.940;6.782;2022-11-04T10:51:00;17.57;;;16.77;;
11431;SDS011;5772;50.940;6.782;2022-11-04T10:53:26;19.13;;;18.23;;
11431;SDS011;5772;50.940;6.782;2022-11-04T10:55:55;20.53;;;19.37;;
11431;SDS011;5772;50.940;6.782;2022-11-04T10:58:24;21.57;;;20.27;;
11431;SDS011;5772;50.940;6.782;2022-11-04T11:00:51;24.97;;;23.60;;
11431;SDS011;5772;50.940;6.782;2022-11-04T11:03:22;22.93;;;22.00;;
11431;SDS011;5772;50.940;6.782;2022-11-04T11:05:49;22.83;;;21.73;;
11431;SDS011;5772;50.940;6.782;2022-11-04T11:08:25;25.20;;;24.10;;
11431;SDS011;5772;50.940;6.782;2022-11-04T11:10:52;21.80;;;20.90;;
11431;SDS011;5772;50.940;6.782;2022-11-04T11:13:24;24.17;;;23.07;;
11431;SDS011;5772;50.940;6.782;2022-11-04T11:15:57;24.97;;;23.90;;
11431;SDS011;5772;50.940;6.782;2022-11-04T11:18:29;26.00;;;24.90;;
11431;SDS011;5772;50.940;6.782;2022-11-04T11:21:03;29.17;;;27.97;;
11431;SDS011;5772;50.940;6.782;2022-11-04T11:23:35;24.33;;;23.33;;
11431;SDS011;5772;50.940;6.782;2022-11-04T11:26:02;29.23;;;28.03;;
11431;SDS011;5772;50.940;6.782;2022-11-04T11:28:29;29.73;;;28.57;;
11431;SDS011;5772;50.940;6.782;2022-11-04T11:30:56;29.47;;;28.10;;
11431;SDS011;5772;50.940;6.782;2022-11-04T11:33:23;30.37;;;29.17;;
11431;SDS011;5772;50.940;6.782;2022-11-04T11:35:50;30.10;;;28.90;;
11431;SDS011;5772;50.940;6.782;2022-11-04T11:38:17;17.57;;;16.77;;
11431;SDS011;5772;50.940;6.782;2022-11-04T11:40:45;18.77;;;17.87;;
11431;SDS011;5772;50.940;6.782;2022-11-04T11:43:14;16.77;;;16.00;;
11431;SDS011;5772;50.940;6.782;2022-11-04T11:45:48;16.20;;;15.40;;
11431;SDS011;5772;50.940;6.782;2022-11-04T11:48:26;20.27;;;19.37;;
11431;SDS011;5772;50.940;6.782;2022-11-04T11:50:53;18.73;;;17.83;;
11431;SDS011;5772;50.940;6.782;2022-11-04T11:53:19;18.63;;;17.50;;
11431;SDS011;5772;50.940;6.782;2022-11-04T11:55:45;19.80;;;19.00;;
11431;SDS011;5772;50.940;6.782;2022-11-04T11:58:17;18.80;;;18.07;;
11431;SDS011;5772;50.940;6.782;2022-11-04T12:00:48;20.10;;;19.30;;
11431;SDS011;5772;50.940;6.782;2022-11-04T12:03:16;21.20;;;20.40;;
11431;SDS011;5772;50.940;6.782;2022-11-04T12:05:44;21.93;;;20.80;;
11431;SDS011;5772;50.940;6.782;2022-11-04T12:08:20;23.00;;;22.10;;
11431;SDS011;5772;50.940;6.782;2022-11-04T12:10:55;20.93;;;20.03;;
11431;SDS011;5772;50.940;6.782;2022-11-04T12:13:23;21.43;;;20.63;;
11431;SDS011;5772;50.940;6.782;2022-11-04T12:15:58;23.93;;;22.97;;
11431;SDS011;5772;50.940;6.782;2022-11-04T12:18:37;21.20;;;20.40;;
11431;SDS011;5772;50.940;6.782;2022-11-04T12:21:08;23.50;;;22.60;;
11431;SDS011;5772;50.940;6.782;2022-11-04T12:23:38;22.77;;;21.67;;
11431;SDS011;5772;50.940;6.782;2022-11-04T12:26:13;20.97;;;20.03;;
11431;SDS011;5772;50.940;6.782;2022-11-04T12:28:48;18.57;;;17.87;;
11431;SDS011;5772;50.940;6.782;2022-11-04T12:31:24;26.43;;;24.23;;
11431;SDS011;5772;50.940;6.782;2022-11-04T12:34:00;20.87;;;19.97;;
11431;SDS011;5772;50.940;6.782;2022-11-04T12:36:35;16.97;;;16.37;;
11431;SDS011;5772;50.940;6.782;2022-11-04T12:39:22;16.80;;;16.10;;
11431;SDS011;5772;50.940;6.782;2022-11-04T12:41:54;17.90;;;17.10;;
11431;SDS011;5772;50.940;6.782;2022-11-04T12:44:27;19.73;;;18.93;;
11431;SDS011;5772;50.940;6.782;2022-11-04T12:46:59;20.90;;;19.90;;
11431;SDS011;5772;50.940;6.782;2022-11-04T12:49:37;23.33;;;22.23;;
11431;SDS011;5772;50.940;6.782;2022-11-04T12:52:13;21.87;;;20.97;;
11431;SDS011;5772;50.940;6.782;2022-11-04T12:54:51;23.37;;;22.27;;
11431;SDS011;5772;50.940;6.782;2022-11-04T12:57:26;21.37;;;20.47;;
11431;SDS011;5772;50.940;6.782;2022-11-04T12:59:59;21.80;;;20.90;;
11431;SDS011;5772;50.940;6.782;2022-11-04T13:02:29;20.63;;;19.73;;
11431;SDS011;5772;50.940;6.782;2022-11-04T13:04:58;23.27;;;22.23;;
11431;SDS011;5772;50.940;6.782;2022-11-04T13:07:27;22.30;;;21.30;;
11431;SDS011;5772;50.940;6.782;2022-11-04T13:09:56;21.60;;;20.70;;
11431;SDS011;5772;50.940;6.782;2022-11-04T13:12:24;23.23;;;22.33;;
11431;SDS011;5772;50.940;6.782;2022-11-04T13:14:52;22.60;;;21.70;;
11431;SDS011;5772;50.940;6.782;2022-11-04T13:17:21;20.20;;;19.27;;
11431;SDS011;5772;50.940;6.782;2022-11-04T13:19:50;20.07;;;19.27;;
11431;SDS011;5772;50.940;6.782;2022-11-04T13:22:17;19.10;;;18.20;;
11431;SDS011;5772;50.940;6.782;2022-11-04T13:24:47;18.90;;;17.83;;
11431;SDS011;5772;50.940;6.782;2022-11-04T13:27:15;20.10;;;19.20;;
11431;SDS011;5772;50.940;6.782;2022-11-04T13:29:43;23.20;;;22.20;;
11431;SDS011;5772;50.940;6.782;2022-11-04T13:32:10;25.90;;;24.90;;
11431;SDS011;5772;50.940;6.782;2022-11-04T13:34:39;26.50;;;25.30;;
11431;SDS011;5772;50.940;6.782;2022-11-04T13:37:15;29.43;;;28.23;;
11431;SDS011;5772;50.940;6.782;2022-11-04T13:39:43;27.83;;;26.53;;
11431;SDS011;5772;50.940;6.782;2022-11-04T13:42:24;26.40;;;25.20;;
11431;SDS011;5772;50.940;6.782;2022-11-04T13:45:03;23.37;;;22.47;;
11431;SDS011;5772;50.940;6.782;2022-11-04T13:47:33;24.87;;;23.40;;
11431;SDS011;5772;50.940;6.782;2022-11-04T13:50:00;19.80;;;18.97;;
11431;SDS011;5772;50.940;6.782;2022-11-04T13:52:27;23.87;;;22.87;;
11431;SDS011;5772;50.940;6.782;2022-11-04T13:54:57;23.00;;;22.00;;
11431;SDS011;5772;50.940;6.782;2022-11-04T13:57:24;19.77;;;18.87;;
11431;SDS011;5772;50.940;6.782;2022-11-04T14:00:04;19.57;;;18.67;;
11431;SDS011;5772;50.940;6.782;2022-11-04T14:02:36;19.80;;;18.90;;
11431;SDS011;5772;50.940;6.782;2022-11-04T14:08:10;19.77;;;18.83;;
11431;SDS011;5772;50.940;6.782;2022-11-04T14:10:37;19.57;;;18.57;;
11431;SDS011;5772;50.940;6.782;2022-11-04T14:16:10;29.63;;;27.17;;
11431;SDS011;5772;50.940;6.782;2022-11-04T14:18:36;20.80;;;19.80;;
11431;SDS011;5772;50.940;6.782;2022-11-04T14:21:04;21.20;;;20.30;;
11431;SDS011;5772;50.940;6.782;2022-11-04T14:23:31;21.90;;;21.00;;
11431;SDS011;5772;50.940;6.782;2022-11-04T14:25:57;22.43;;;21.20;;
11431;SDS011;5772;50.940;6.782;2022-11-04T14:28:25;22.70;;;21.53;;
11431;SDS011;5772;50.940;6.782;2022-11-04T14:30:51;23.10;;;22.00;;
11431;SDS011;5772;50.940;6.782;2022-11-04T14:33:34;21.80;;;20.90;;
11431;SDS011;5772;50.940;6.782;2022-11-04T14:38:52;22.83;;;21.57;;
11431;SDS011;5772;50.940;6.782;2022-11-04T14:41:20;23.47;;;21.57;;
11431;SDS011;5772;50.940;6.782;2022-11-04T14:43:47;22.93;;;21.70;;
11431;SDS011;5772;50.940;6.782;2022-11-04T14:46:16;24.77;;;22.93;;
11431;SDS011;5772;50.940;6.782;2022-11-04T14:48:44;22.43;;;21.53;;
11431;SDS011;5772;50.940;6.782;2022-11-04T14:51:18;23.67;;;22.47;;
11431;SDS011;5772;50.940;6.782;2022-11-04T14:53:45;24.37;;;23.27;;
11431;SDS011;5772;50.940;6.782;2022-11-04T14:56:14;30.83;;;28.80;;